Time;durP1;ratioP1;P1;durP2;ratioP2;P2;SDS_P1;SDS_P2;PMS_P1;PMS_P2;Temp;Humidity;BMP_temperature;BMP_pressure;BME280_temperature;BME280_humidity;BME280_pressure;Samples;Min_cycle;Max_cycle;Signal;HPM_P1;HPM_P2
2022/01/15 00:02:06;;;;;;;72.78;30.02;;;-2.50;99.90;;;;;;4954615;29;20142;-84
2022/01/15 00:04:31;;;;;;;75.03;31.52;;;-2.50;99.90;;;;;;4954429;29;20117;-83
2022/01/15 00:06:57;;;;;;;73.32;30.55;;;-2.50;99.90;;;;;;4954030;29;20159;-83
2022/01/15 00:09:23;;;;;;;66.07;31.88;;;-2.50;99.90;;;;;;4954338;28;20035;-83
2022/01/15 00:11:48;;;;;;;90.80;37.17;;;-2.50;99.90;;;;;;4953967;29;20027;-82
2022/01/15 00:14:24;;;;;;;88.80;37.53;;;-2.50;99.90;;;;;;4953941;29;20475;-83
2022/01/15 00:16:56;;;;;;;93.80;41.80;;;-2.40;99.90;;;;;;4954034;29;20039;-83
2022/01/15 00:19:36;;;;;;;101.80;44.80;;;-2.30;99.90;;;;;;4953704;29;20134;-83
2022/01/15 00:22:02;;;;;;;120.18;50.60;;;-2.20;99.90;;;;;;4937880;29;20031;-83
2022/01/15 00:24:28;;;;;;;121.82;51.15;;;-2.00;99.90;;;;;;4953616;29;20028;-83
2022/01/15 00:26:53;;;;;;;120.72;52.30;;;-1.90;99.90;;;;;;4937939;29;20498;-83
2022/01/15 00:29:19;;;;;;;108.95;50.38;;;-1.90;99.90;;;;;;4938254;29;20168;-83
2022/01/15 00:31:45;;;;;;;109.82;50.47;;;-1.70;99.90;;;;;;4954051;29;20035;-83
2022/01/15 00:34:10;;;;;;;112.70;48.95;;;-1.80;99.90;;;;;;4937750;29;20547;-83
2022/01/15 00:36:36;;;;;;;124.47;51.33;;;-1.90;99.90;;;;;;4954075;28;20052;-83
2022/01/15 00:39:02;;;;;;;126.97;49.65;;;-1.90;99.90;;;;;;4953529;29;20395;-82
2022/01/15 00:41:27;;;;;;;120.20;47.95;;;-1.90;99.90;;;;;;4954154;28;20472;-83
2022/01/15 00:43:53;;;;;;;109.22;48.33;;;-2.00;99.90;;;;;;4937965;29;20031;-83
2022/01/15 00:46:25;;;;;;;116.75;50.13;;;-2.00;99.90;;;;;;4938256;28;20054;-83
2022/01/15 00:48:50;;;;;;;113.07;49.63;;;-1.90;99.90;;;;;;4941033;29;20028;-83
2022/01/15 00:51:16;;;;;;;131.13;49.80;;;-1.90;99.90;;;;;;4942097;29;20033;-83
2022/01/15 00:53:42;;;;;;;116.70;48.78;;;-2.00;99.90;;;;;;4957354;29;20110;-83
2022/01/15 00:56:07;;;;;;;128.00;50.30;;;-2.00;99.90;;;;;;4957589;29;20038;-83
2022/01/15 00:58:33;;;;;;;133.80;52.22;;;-2.00;99.90;;;;;;4957277;28;20031;-83
2022/01/15 01:00:59;;;;;;;131.73;51.67;;;-1.90;99.90;;;;;;4941368;29;20035;-83
2022/01/15 01:03:25;;;;;;;133.20;53.85;;;-1.80;99.90;;;;;;4941142;29;20027;-83
2022/01/15 01:05:50;;;;;;;130.30;53.88;;;-1.80;99.90;;;;;;4956948;29;20027;-82
2022/01/15 01:08:16;;;;;;;129.70;50.28;;;-1.90;99.90;;;;;;4941267;29;20070;-83
2022/01/15 01:10:57;;;;;;;141.00;52.60;;;-2.00;99.90;;;;;;4941051;29;20035;-83
2022/01/15 01:24:24;;;;;;;139.15;53.65;;;-1.90;99.90;;;;;;4956472;29;20507;-83
2022/01/15 01:31:56;;;;;;;154.98;58.00;;;-1.90;99.90;;;;;;4958013;29;20066;-83
2022/01/15 01:34:24;;;;;;;151.57;57.13;;;-1.70;99.90;;;;;;4940620;29;20027;-83
2022/01/15 01:39:45;;;;;;;146.80;56.03;;;-1.80;99.90;;;;;;4957669;29;20035;-82
2022/01/15 01:45:10;;;;;;;142.45;53.85;;;-2.00;99.90;;;;;;4956517;29;20047;-82
2022/01/15 01:47:48;;;;;;;146.45;55.55;;;-2.00;99.90;;;;;;4940266;29;20070;-83
2022/01/15 01:50:20;;;;;;;153.18;53.00;;;-2.10;99.90;;;;;;4957689;29;20062;-83
2022/01/15 01:52:49;;;;;;;138.90;53.75;;;-2.20;99.90;;;;;;4940573;29;20027;-82
2022/01/15 01:55:16;;;;;;;138.68;51.83;;;-2.10;99.90;;;;;;4940088;29;20031;-83
2022/01/15 01:57:43;;;;;;;138.35;51.45;;;-2.10;99.90;;;;;;4956019;28;20027;-83
2022/01/15 02:00:12;;;;;;;138.13;51.88;;;-2.20;99.90;;;;;;4939757;29;20174;-83
2022/01/15 02:02:46;;;;;;;122.18;47.53;;;-2.30;99.90;;;;;;4939949;29;20139;-82
2022/01/15 02:05:29;;;;;;;115.93;45.50;;;-2.30;99.90;;;;;;4939576;29;20074;-83
2022/01/15 02:07:54;;;;;;;119.55;43.40;;;-2.20;99.90;;;;;;4939549;29;20450;-83
2022/01/15 02:10:21;;;;;;;111.65;40.63;;;-2.10;99.90;;;;;;4955804;29;20035;-82
2022/01/15 02:12:50;;;;;;;116.15;38.80;;;-2.20;99.90;;;;;;4955760;29;20035;-83
2022/01/15 02:15:31;;;;;;;101.22;39.85;;;-2.10;99.90;;;;;;4939663;29;20491;-83
2022/01/15 02:17:57;;;;;;;107.75;35.50;;;-2.20;99.90;;;;;;4940022;29;20179;-83
2022/01/15 02:25:56;;;;;;;140.23;48.92;;;-2.30;99.90;;;;;;4956261;29;20031;-83
2022/01/15 02:28:31;;;;;;;121.70;40.58;;;-2.40;99.90;;;;;;4956031;29;20036;-83
2022/01/15 02:31:09;;;;;;;144.05;36.33;;;-2.50;99.90;;;;;;4940073;29;20090;-83
2022/01/15 02:33:37;;;;;;;128.63;34.50;;;-2.50;99.90;;;;;;4940073;29;20038;-83
2022/01/15 02:36:06;;;;;;;102.22;31.88;;;-2.60;99.90;;;;;;4955691;29;20035;-83
2022/01/15 02:38:31;;;;;;;110.68;32.28;;;-2.70;99.90;;;;;;4939255;29;20482;-83
2022/01/15 02:40:57;;;;;;;95.35;32.22;;;-2.80;99.90;;;;;;4939314;29;20039;-84
2022/01/15 02:43:33;;;;;;;86.10;31.27;;;-2.80;99.90;;;;;;4955289;29;20034;-82
2022/01/15 02:46:35;;;;;;;89.22;30.55;;;-2.80;99.90;;;;;;4939378;29;20035;-83
2022/01/15 02:48:58;;;;;;;90.03;31.42;;;-2.70;99.90;;;;;;4938854;29;20041;-83
2022/01/15 02:51:26;;;;;;;84.72;31.17;;;-2.50;99.90;;;;;;4954770;29;20569;-83
2022/01/15 02:53:55;;;;;;;90.00;30.85;;;-2.50;99.90;;;;;;4954172;29;20034;-83
2022/01/15 02:56:23;;;;;;;91.60;29.05;;;-2.50;99.90;;;;;;4938516;29;20162;-83
2022/01/15 02:58:48;;;;;;;80.68;28.58;;;-2.60;99.90;;;;;;4938656;29;20030;-83
2022/01/15 03:01:14;;;;;;;81.82;29.40;;;-2.70;99.90;;;;;;4954899;29;20035;-83
2022/01/15 03:03:40;;;;;;;82.53;30.60;;;-2.60;99.90;;;;;;4954711;29;20047;-83
2022/01/15 03:06:14;;;;;;;87.75;32.40;;;-2.50;99.90;;;;;;4954911;29;20153;-83
2022/01/15 03:08:41;;;;;;;83.72;32.08;;;-2.40;99.90;;;;;;4939166;29;20039;-84
2022/01/15 03:11:07;;;;;;;90.15;32.58;;;-2.30;99.90;;;;;;4938201;29;20023;-83
2022/01/15 03:13:34;;;;;;;77.80;30.30;;;-2.30;99.90;;;;;;4954760;29;20130;-83
2022/01/15 03:16:00;;;;;;;86.15;30.42;;;-2.30;99.90;;;;;;4955031;29;20034;-83
2022/01/15 03:18:26;;;;;;;84.38;31.10;;;-2.20;99.90;;;;;;4955018;29;20027;-83
2022/01/15 03:20:52;;;;;;;84.15;29.83;;;-2.10;99.90;;;;;;4938865;29;20090;-83
2022/01/15 03:23:18;;;;;;;89.18;29.67;;;-2.00;99.90;;;;;;4955111;28;20391;-84
2022/01/15 03:25:44;;;;;;;78.28;30.13;;;-1.90;99.90;;;;;;4938919;29;20031;-83
2022/01/15 03:28:09;;;;;;;84.05;30.35;;;-1.90;99.90;;;;;;4954995;29;20467;-83
2022/01/15 03:30:35;;;;;;;77.68;28.80;;;-2.00;99.90;;;;;;4955064;28;20090;-83
2022/01/15 03:33:01;;;;;;;79.60;28.88;;;-2.00;99.90;;;;;;4954737;29;20035;-83
2022/01/15 03:35:27;;;;;;;76.20;27.40;;;-2.00;99.90;;;;;;4954245;29;20042;-83
2022/01/15 03:37:53;;;;;;;69.90;27.10;;;-2.00;99.90;;;;;;4953905;28;20368;-83
2022/01/15 03:40:32;;;;;;;77.03;26.77;;;-2.00;99.90;;;;;;4954074;28;20035;-83
2022/01/15 03:46:45;;;;;;;73.35;26.05;;;-2.00;99.90;;;;;;4956127;29;20046;-84
2022/01/15 03:49:11;;;;;;;75.60;27.63;;;-2.00;99.90;;;;;;4954124;29;20459;-84
2022/01/15 03:51:37;;;;;;;90.75;28.98;;;-2.00;99.90;;;;;;4954441;29;20037;-84
2022/01/15 03:54:03;;;;;;;83.93;29.00;;;-2.00;99.90;;;;;;4953744;29;20031;-84
2022/01/15 03:56:31;;;;;;;86.38;29.50;;;-2.00;99.90;;;;;;4938243;29;20039;-83
2022/01/15 03:58:56;;;;;;;82.25;27.80;;;-2.00;99.90;;;;;;4938251;29;20041;-84
2022/01/15 04:01:22;;;;;;;89.35;30.67;;;-1.90;99.90;;;;;;4954070;29;20037;-84
2022/01/15 04:03:48;;;;;;;78.28;27.98;;;-2.00;99.90;;;;;;4953888;29;20038;-83
2022/01/15 04:06:14;;;;;;;83.90;30.05;;;-1.90;99.90;;;;;;4953407;29;20086;-84
2022/01/15 04:08:39;;;;;;;85.07;26.77;;;-1.70;99.90;;;;;;4953424;29;20558;-83
2022/01/15 04:11:05;;;;;;;52.70;19.42;;;-1.60;99.90;;;;;;4953883;28;20035;-83
2022/01/15 04:13:31;;;;;;;53.13;16.65;;;-1.50;99.90;;;;;;4955092;29;20499;-83
2022/01/15 04:15:57;;;;;;;44.63;13.30;;;-1.50;99.90;;;;;;4955013;29;20027;-84
2022/01/15 04:18:23;;;;;;;30.35;11.00;;;-1.50;99.90;;;;;;4953846;29;20027;-84
2022/01/15 04:20:51;;;;;;;31.70;11.00;;;-1.50;99.90;;;;;;4955118;28;20130;-83
2022/01/15 04:23:16;;;;;;;31.48;9.50;;;-1.50;99.90;;;;;;4959377;29;20035;-83
2022/01/15 04:25:42;;;;;;;22.60;8.68;;;-1.50;99.90;;;;;;4959416;29;20035;-83
2022/01/15 04:28:10;;;;;;;29.23;8.77;;;-1.50;99.90;;;;;;4959609;29;20034;-84
2022/01/15 04:30:39;;;;;;;31.67;8.88;;;-1.50;99.90;;;;;;4959681;29;20038;-83
2022/01/15 04:33:05;;;;;;;28.50;8.93;;;-1.40;99.90;;;;;;4961086;29;20027;-83
2022/01/15 04:35:31;;;;;;;29.67;9.77;;;-1.50;99.90;;;;;;4943788;29;20049;-83
2022/01/15 04:38:05;;;;;;;29.10;9.00;;;-1.40;99.90;;;;;;4959630;29;20138;-83
2022/01/15 04:40:31;;;;;;;35.05;8.80;;;-1.40;99.90;;;;;;4960120;29;20039;-83
2022/01/15 04:42:57;;;;;;;28.42;8.40;;;-1.40;99.90;;;;;;4960004;29;20034;-83
2022/01/15 04:45:22;;;;;;;39.30;9.10;;;-1.40;99.90;;;;;;4943711;29;20067;-83
2022/01/15 04:47:48;;;;;;;30.42;7.68;;;-1.40;99.90;;;;;;4959835;29;20102;-83
2022/01/15 04:50:17;;;;;;;18.88;6.90;;;-1.50;99.90;;;;;;4961140;28;20416;-83
2022/01/15 04:52:43;;;;;;;26.13;7.35;;;-1.50;99.90;;;;;;4928292;29;20042;-83
2022/01/15 04:55:10;;;;;;;17.58;6.97;;;-1.40;99.90;;;;;;4959599;28;20516;-83
2022/01/15 04:57:37;;;;;;;31.30;7.55;;;-1.40;99.90;;;;;;4960007;28;20106;-83
2022/01/15 05:00:06;;;;;;;25.20;7.28;;;-1.40;99.90;;;;;;4959759;28;20031;-83
2022/01/15 05:02:32;;;;;;;30.20;8.15;;;-1.40;99.90;;;;;;4961069;29;20034;-84
2022/01/15 05:04:57;;;;;;;27.75;9.07;;;-1.40;99.90;;;;;;4943642;29;20023;-84
2022/01/15 05:07:23;;;;;;;24.48;8.73;;;-1.50;99.90;;;;;;4959913;29;20543;-83
2022/01/15 05:09:49;;;;;;;37.65;9.50;;;-1.50;99.90;;;;;;4943730;29;20047;-83
2022/01/15 05:12:49;;;;;;;24.40;8.40;;;-1.50;99.90;;;;;;4943657;29;20435;-83
2022/01/15 05:15:07;;;;;;;27.48;8.85;;;-1.60;99.90;;;;;;4942405;28;20055;-83
2022/01/15 05:17:33;;;;;;;31.70;9.43;;;-1.50;99.90;;;;;;4959458;29;20046;-84
2022/01/15 05:19:59;;;;;;;34.05;8.77;;;-1.50;99.90;;;;;;4943655;29;20039;-83
2022/01/15 05:22:25;;;;;;;36.53;9.95;;;-1.50;99.90;;;;;;4959309;28;20031;-83
2022/01/15 05:24:50;;;;;;;27.98;8.90;;;-1.50;99.90;;;;;;4959104;29;20027;-84
2022/01/15 05:27:16;;;;;;;41.38;10.68;;;-1.50;99.90;;;;;;4942979;29;20042;-83
2022/01/15 05:29:42;;;;;;;38.20;11.30;;;-1.50;99.90;;;;;;4943394;29;20494;-83
2022/01/15 05:32:08;;;;;;;34.35;11.05;;;-1.50;99.90;;;;;;4960593;28;20031;-84
2022/01/15 05:34:34;;;;;;;36.38;10.73;;;-1.40;99.90;;;;;;4955383;28;20458;-83
2022/01/15 05:36:59;;;;;;;39.40;11.50;;;-1.40;99.90;;;;;;4955790;29;20042;-83
2022/01/15 05:39:25;;;;;;;39.13;11.82;;;-1.50;99.90;;;;;;4955937;29;20043;-83
2022/01/15 05:41:51;;;;;;;40.78;11.65;;;-1.40;99.90;;;;;;4957355;29;20117;-83
2022/01/15 05:44:16;;;;;;;39.42;10.98;;;-1.40;99.90;;;;;;4940074;29;20054;-83
2022/01/15 05:46:44;;;;;;;38.80;10.98;;;-1.50;99.90;;;;;;4940646;29;20034;-84
2022/01/15 05:49:10;;;;;;;39.33;11.00;;;-1.40;99.90;;;;;;4957413;29;20807;-83
2022/01/15 05:51:35;;;;;;;45.13;11.40;;;-1.40;99.90;;;;;;4956286;29;20042;-84
2022/01/15 05:54:10;;;;;;;39.72;10.88;;;-1.50;99.90;;;;;;4940061;29;20102;-84
2022/01/15 06:00:23;;;;;;;53.05;11.25;;;-1.50;99.90;;;;;;4957650;29;20123;-83
2022/01/15 06:02:49;;;;;;;81.55;15.75;;;-1.50;99.90;;;;;;4955887;29;20126;-83
2022/01/15 06:05:15;;;;;;;48.42;11.75;;;-1.50;99.90;;;;;;4955627;29;20038;-83
2022/01/15 06:07:41;;;;;;;47.60;11.82;;;-1.40;99.90;;;;;;4939861;29;20031;-83
2022/01/15 06:10:07;;;;;;;47.95;11.88;;;-1.40;99.90;;;;;;4955901;28;20066;-84
2022/01/15 06:12:41;;;;;;;44.60;11.98;;;-1.40;99.90;;;;;;4939876;29;20170;-83
2022/01/15 06:15:08;;;;;;;45.03;10.82;;;-1.40;99.90;;;;;;4955609;29;20038;-83
2022/01/15 06:17:33;;;;;;;54.70;12.10;;;-1.30;99.90;;;;;;4939496;29;20031;-83
2022/01/15 06:19:59;;;;;;;51.17;11.25;;;-1.30;99.90;;;;;;4954666;28;20050;-83
2022/01/15 06:22:25;;;;;;;56.95;14.23;;;-1.30;99.90;;;;;;4955844;29;20107;-83
2022/01/15 06:24:50;;;;;;;44.30;11.77;;;-1.20;99.90;;;;;;4939781;29;20090;-84
2022/01/15 06:27:19;;;;;;;51.35;13.10;;;-1.20;99.90;;;;;;4957622;29;20024;-84
2022/01/15 06:29:45;;;;;;;60.95;13.40;;;-1.20;99.90;;;;;;4955822;29;20042;-83
2022/01/15 06:32:12;;;;;;;63.75;13.77;;;-1.20;99.90;;;;;;4939538;29;20130;-84
2022/01/15 06:34:38;;;;;;;70.10;14.60;;;-1.10;99.90;;;;;;4956638;29;20055;-83
2022/01/15 06:37:07;;;;;;;75.40;14.30;;;-1.10;99.90;;;;;;4957040;29;20118;-83
2022/01/15 06:39:34;;;;;;;113.20;15.85;;;-1.10;99.90;;;;;;4939709;29;20089;-84
2022/01/15 06:42:00;;;;;;;53.50;12.73;;;-1.10;99.90;;;;;;4957063;29;20039;-84
2022/01/15 06:44:26;;;;;;;77.10;14.60;;;-1.10;99.90;;;;;;4938494;29;20452;-84
2022/01/15 06:46:52;;;;;;;62.25;14.00;;;-1.10;99.90;;;;;;4938652;29;20066;-84
2022/01/15 06:49:18;;;;;;;116.32;16.67;;;-1.00;99.90;;;;;;4955238;29;20039;-84
2022/01/15 06:51:44;;;;;;;74.28;14.38;;;-1.00;99.90;;;;;;4955388;29;20464;-83
2022/01/15 06:54:10;;;;;;;77.97;14.23;;;-1.00;99.90;;;;;;4951126;29;20143;-84
2022/01/15 06:56:36;;;;;;;73.72;14.52;;;-1.00;99.90;;;;;;4956488;29;20483;-84
2022/01/15 06:59:02;;;;;;;56.17;12.55;;;-1.00;99.90;;;;;;4956501;29;20042;-84
2022/01/15 07:01:28;;;;;;;52.15;11.85;;;-1.00;99.90;;;;;;4939391;29;20035;-84
2022/01/15 07:03:53;;;;;;;103.10;16.00;;;-1.00;99.90;;;;;;4938444;29;20050;-84
2022/01/15 07:06:53;;;;;;;55.13;12.02;;;-1.00;99.90;;;;;;4954705;29;20035;-84
2022/01/15 07:09:19;;;;;;;117.28;20.17;;;-1.00;99.90;;;;;;4954731;29;20070;-84
2022/01/15 07:11:45;;;;;;;100.03;16.98;;;-0.90;99.90;;;;;;4938752;29;20121;-84
2022/01/15 07:14:10;;;;;;;115.18;17.58;;;-1.00;99.90;;;;;;4938669;29;20031;-84
2022/01/15 07:17:32;;;;;;;116.18;15.93;;;-0.90;99.90;;;;;;4938735;29;20110;-84
2022/01/15 07:19:58;;;;;;;121.95;14.98;;;-0.90;99.90;;;;;;4953911;29;20403;-84
2022/01/15 07:22:23;;;;;;;124.25;15.98;;;-0.90;99.90;;;;;;4938732;29;20085;-84
2022/01/15 07:24:49;;;;;;;113.63;17.17;;;-0.90;99.90;;;;;;4954338;29;20383;-84
2022/01/15 07:27:15;;;;;;;68.97;15.98;;;-0.90;99.90;;;;;;4938472;29;20035;-84
2022/01/15 07:29:41;;;;;;;107.55;17.10;;;-0.90;99.90;;;;;;4954421;29;20695;-83
2022/01/15 07:32:07;;;;;;;137.93;17.90;;;-0.90;99.90;;;;;;4954583;29;20075;-84
2022/01/15 07:34:33;;;;;;;66.22;14.57;;;-0.90;99.90;;;;;;4954061;29;20395;-83
2022/01/15 07:37:34;;;;;;;167.48;17.85;;;-0.80;99.90;;;;;;4954421;29;20049;-84
2022/01/15 07:40:00;;;;;;;62.65;13.90;;;-0.70;99.90;;;;;;4955415;29;20047;-84
2022/01/15 07:42:28;;;;;;;74.00;15.00;;;-0.60;99.90;;;;;;4922457;29;20142;-84
2022/01/15 07:44:54;;;;;;;107.82;18.58;;;-0.60;99.90;;;;;;4954704;29;20399;-84
2022/01/15 07:47:19;;;;;;;191.45;24.85;;;-0.60;99.90;;;;;;4922068;29;20039;-84
2022/01/15 07:49:45;;;;;;;73.43;15.68;;;-0.60;99.90;;;;;;4954182;29;20091;-84
2022/01/15 07:52:11;;;;;;;147.65;20.60;;;-0.60;99.90;;;;;;4938776;29;20439;-84
2022/01/15 07:54:37;;;;;;;196.60;17.67;;;-0.50;99.90;;;;;;4953873;29;20094;-84
2022/01/15 07:57:33;;;;;;;94.55;16.67;;;-0.50;99.90;;;;;;4937494;29;20122;-84
2022/01/15 07:59:59;;;;;;;153.75;22.60;;;-0.60;99.90;;;;;;4937123;29;20050;-83
2022/01/15 08:02:26;;;;;;;124.25;19.48;;;-0.60;99.90;;;;;;4937960;29;20024;-84
2022/01/15 08:04:52;;;;;;;66.38;14.95;;;-0.60;99.90;;;;;;4953819;29;20031;-84
2022/01/15 08:07:18;;;;;;;74.85;17.00;;;-0.60;99.90;;;;;;4938089;29;20162;-84
2022/01/15 08:09:44;;;;;;;87.60;19.50;;;-0.60;99.90;;;;;;4953765;29;20041;-84
2022/01/15 08:12:11;;;;;;;87.57;19.38;;;-0.60;99.90;;;;;;4937868;29;20487;-84
2022/01/15 08:14:37;;;;;;;97.78;20.20;;;-0.70;99.90;;;;;;4955047;29;20037;-84
2022/01/15 08:17:03;;;;;;;89.82;21.80;;;-0.60;99.90;;;;;;4954053;29;20830;-84
2022/01/15 08:19:29;;;;;;;105.20;29.70;;;-0.70;99.90;;;;;;4937761;29;20042;-84
2022/01/15 08:21:55;;;;;;;103.63;26.73;;;-0.60;99.90;;;;;;4937971;29;20027;-84
2022/01/15 08:24:20;;;;;;;85.55;23.50;;;-0.50;99.90;;;;;;4953526;29;20035;-84
2022/01/15 08:26:47;;;;;;;90.13;23.08;;;-0.50;99.90;;;;;;4954120;29;20369;-84
2022/01/15 08:29:14;;;;;;;82.25;25.08;;;-0.60;99.90;;;;;;4954540;29;20039;-90
2022/01/15 08:31:39;;;;;;;83.80;26.08;;;-0.60;99.90;;;;;;5035141;23;20051;-86
2022/01/15 08:34:08;;;;;;;93.65;30.00;;;-0.60;99.90;;;;;;4926128;29;20028;-86
2022/01/15 08:36:36;;;;;;;87.03;27.08;;;-0.60;99.90;;;;;;4931011;29;20035;-85
2022/01/15 08:39:04;;;;;;;94.95;28.33;;;-0.60;99.90;;;;;;4957204;28;20023;-86
2022/01/15 08:41:31;;;;;;;93.43;30.60;;;-0.60;99.90;;;;;;4932646;29;20034;-85
2022/01/15 08:43:57;;;;;;;98.57;32.03;;;-0.70;99.90;;;;;;4938295;28;20556;-86
2022/01/15 08:46:23;;;;;;;92.97;33.70;;;-0.70;99.90;;;;;;4943739;29;20057;-84
2022/01/15 08:48:50;;;;;;;79.10;32.67;;;-0.80;99.90;;;;;;4944575;29;20031;-86
2022/01/15 08:51:15;;;;;;;105.00;38.45;;;-0.70;99.90;;;;;;4928995;29;20033;-86
2022/01/15 08:53:41;;;;;;;101.03;33.83;;;-0.70;99.90;;;;;;4944247;29;20035;-85
2022/01/15 08:56:07;;;;;;;104.53;39.85;;;-0.70;99.90;;;;;;4943725;29;20082;-85
2022/01/15 08:58:33;;;;;;;99.15;37.15;;;-0.60;99.90;;;;;;4943867;29;20034;-87
2022/01/15 09:00:59;;;;;;;98.43;39.05;;;-0.50;99.90;;;;;;4924617;29;20413;-87
2022/01/15 09:03:25;;;;;;;101.10;40.25;;;-0.30;99.90;;;;;;4945207;29;20191;-87
2022/01/15 09:05:51;;;;;;;111.47;43.65;;;-0.30;99.90;;;;;;4946308;29;20024;-87
2022/01/15 09:08:24;;;;;;;103.90;42.45;;;-0.20;99.90;;;;;;4935421;28;20024;-85
2022/01/15 09:10:53;;;;;;;98.20;40.38;;;-0.10;99.90;;;;;;4954715;28;20070;-86
2022/01/15 09:13:21;;;;;;;94.70;37.88;;;0.00;99.90;;;;;;4918447;29;20770;-85
2022/01/15 09:15:47;;;;;;;96.80;36.70;;;0.10;99.90;;;;;;4933790;28;20024;-84
2022/01/15 09:18:15;;;;;;;84.50;35.67;;;0.20;99.90;;;;;;4932670;29;20551;-86
2022/01/15 09:20:41;;;;;;;95.07;36.42;;;0.30;99.90;;;;;;4929816;29;20043;-84
2022/01/15 09:23:07;;;;;;;83.75;35.42;;;0.40;99.90;;;;;;4948659;29;20063;-86
2022/01/15 09:25:33;;;;;;;86.78;35.72;;;0.40;99.90;;;;;;4945083;29;20050;-85
2022/01/15 09:30:45;;;;;;;72.05;31.05;;;0.40;99.90;;;;;;4936352;29;20070;-85
2022/01/15 09:33:11;;;;;;;68.18;30.52;;;0.40;99.90;;;;;;4925715;29;20040;-86
2022/01/15 09:35:37;;;;;;;68.53;27.60;;;0.40;99.90;;;;;;4937656;29;20583;-87
2022/01/15 09:38:03;;;;;;;72.25;30.77;;;0.50;99.90;;;;;;4926476;29;20038;-87
2022/01/15 09:40:28;;;;;;;63.95;29.08;;;0.50;99.90;;;;;;4934387;29;20040;-87
2022/01/15 09:42:55;;;;;;;62.35;26.88;;;0.50;99.90;;;;;;4938731;28;20154;-86
2022/01/15 09:45:23;;;;;;;62.30;27.90;;;0.50;99.90;;;;;;4927238;29;20040;-85
2022/01/15 09:48:00;;;;;;;58.80;27.55;;;0.60;99.90;;;;;;4923684;29;20566;-85
2022/01/15 09:50:28;;;;;;;63.83;27.63;;;0.60;99.90;;;;;;4931764;29;20036;-84
2022/01/15 09:52:55;;;;;;;61.60;29.52;;;0.70;99.90;;;;;;4940538;29;20570;-86
2022/01/15 09:55:21;;;;;;;53.25;24.70;;;0.80;99.90;;;;;;4929417;29;20031;-86
2022/01/15 09:57:48;;;;;;;52.95;25.90;;;1.00;99.90;;;;;;4968208;28;20094;-87
2022/01/15 10:00:17;;;;;;;44.22;21.50;;;1.40;99.90;;;;;;4938589;29;20031;-86
2022/01/15 10:02:48;;;;;;;39.75;20.40;;;2.00;99.90;;;;;;4918219;29;20038;-87
2022/01/15 10:05:15;;;;;;;33.10;18.55;;;2.60;99.90;;;;;;4931661;29;20114;-86
2022/01/15 10:08:05;;;;;;;27.48;16.00;;;3.10;99.90;;;;;;4938519;29;20027;-86
2022/01/15 10:10:33;;;;;;;29.05;16.77;;;3.70;99.90;;;;;;4918496;29;20039;-87
2022/01/15 10:13:20;;;;;;;30.45;14.98;;;4.00;99.90;;;;;;4927163;28;20035;-86
2022/01/15 10:15:49;;;;;;;27.73;14.68;;;4.10;99.90;;;;;;4923336;28;20031;-86
2022/01/15 10:18:42;;;;;;;26.63;14.02;;;4.20;99.90;;;;;;4918511;29;20027;-87
2022/01/15 10:21:16;;;;;;;27.73;15.40;;;4.50;99.90;;;;;;4932817;29;20035;-86
2022/01/15 10:23:53;;;;;;;26.85;15.60;;;4.60;99.90;;;;;;4922641;29;20047;-88
2022/01/15 10:26:28;;;;;;;31.85;16.23;;;4.80;99.90;;;;;;4921587;28;20079;-85
2022/01/15 10:29:03;;;;;;;29.85;15.35;;;5.30;99.90;;;;;;4923078;29;20504;-87
2022/01/15 10:31:41;;;;;;;28.70;14.85;;;6.00;99.90;;;;;;4926471;29;20094;-87
2022/01/15 10:34:32;;;;;;;23.25;13.73;;;6.40;99.90;;;;;;4949990;28;20050;-85
2022/01/15 10:37:04;;;;;;;;;;;6.40;99.90;;;;;;4918146;29;20110;-86
2022/01/15 10:39:30;;;;;;;23.52;14.38;;;6.10;99.90;;;;;;4933838;29;20021;-86
2022/01/15 10:41:56;;;;;;;23.45;14.85;;;6.00;99.90;;;;;;4931833;29;20324;-87
2022/01/15 10:44:32;;;;;;;24.20;14.55;;;5.70;99.90;;;;;;4921165;28;20239;-86
2022/01/15 10:47:07;;;;;;;27.23;13.43;;;5.70;99.90;;;;;;4925800;29;20035;-86
2022/01/15 10:49:34;;;;;;;26.23;14.90;;;5.70;99.90;;;;;;4924355;29;20484;-86
2022/01/15 10:52:14;;;;;;;23.13;13.30;;;5.50;99.90;;;;;;4933239;29;20393;-85
2022/01/15 10:55:02;;;;;;;23.35;14.23;;;5.20;99.90;;;;;;4928887;29;20039;-87
2022/01/15 10:57:34;;;;;;;25.35;13.75;;;5.00;99.90;;;;;;4911807;29;20042;-86
2022/01/15 11:00:19;;;;;;;25.08;15.25;;;4.90;99.90;;;;;;4918446;28;20126;-87
2022/01/15 11:02:51;;;;;;;29.33;16.45;;;4.70;99.90;;;;;;4939597;29;20066;-86
2022/01/15 11:05:24;;;;;;;25.98;15.75;;;4.20;99.90;;;;;;4938632;29;20027;-86
2022/01/15 11:07:50;;;;;;;27.35;15.15;;;4.40;99.90;;;;;;4939984;29;20584;-85
2022/01/15 11:10:16;;;;;;;26.02;14.50;;;4.40;99.90;;;;;;4934753;29;20027;-87
2022/01/15 11:12:42;;;;;;;26.20;15.27;;;4.40;99.90;;;;;;4914582;29;20085;-87
2022/01/15 11:15:08;;;;;;;28.70;13.65;;;4.40;99.90;;;;;;4919644;29;20086;-87
2022/01/15 11:17:35;;;;;;;24.40;14.65;;;4.20;99.90;;;;;;4934224;29;20142;-85
2022/01/15 11:20:05;;;;;;;24.73;14.30;;;4.40;99.90;;;;;;4921644;29;20131;-86
2022/01/15 11:22:32;;;;;;;27.02;16.10;;;4.20;99.90;;;;;;4915907;29;20115;-86
2022/01/15 11:24:59;;;;;;;27.98;15.60;;;4.10;99.90;;;;;;4938543;29;20039;-86
2022/01/15 11:27:29;;;;;;;39.70;18.85;;;3.90;99.90;;;;;;4921703;29;20580;-87
2022/01/15 11:29:58;;;;;;;32.30;16.48;;;3.60;99.90;;;;;;4943939;29;20028;-87
2022/01/15 11:32:26;;;;;;;25.05;14.00;;;3.50;99.90;;;;;;4934695;29;20031;-86
2022/01/15 11:34:59;;;;;;;27.10;14.70;;;3.60;99.90;;;;;;4916976;29;20027;-86
2022/01/15 11:37:25;;;;;;;25.10;13.70;;;3.70;99.90;;;;;;4918608;29;20031;-87
2022/01/15 11:39:54;;;;;;;32.13;17.02;;;3.70;99.90;;;;;;4932427;29;20050;-85
2022/01/15 11:42:26;;;;;;;57.40;23.25;;;3.90;99.90;;;;;;4932904;29;20070;-86
2022/01/15 11:44:52;;;;;;;84.20;30.20;;;4.40;99.90;;;;;;4912606;29;20039;-86
2022/01/15 11:47:25;;;;;;;49.53;19.50;;;5.00;99.90;;;;;;4937929;29;20545;-85
2022/01/15 11:49:53;;;;;;;30.70;16.08;;;5.60;99.90;;;;;;4919444;29;20489;-85
2022/01/15 11:52:21;;;;;;;28.27;15.27;;;5.60;99.90;;;;;;4952290;29;20035;-86
2022/01/15 11:55:06;;;;;;;24.63;13.93;;;5.50;99.90;;;;;;4938448;29;20031;-87
2022/01/15 11:57:44;;;;;;;22.55;13.40;;;5.50;99.90;;;;;;4931779;29;20039;-86
2022/01/15 12:00:26;;;;;;;20.85;12.85;;;5.70;99.90;;;;;;4923202;29;20057;-87
2022/01/15 12:03:02;;;;;;;;;;;6.20;99.90;;;;;;4932562;29;20035;-87
2022/01/15 12:05:31;;;;;;;22.67;13.90;;;6.50;99.90;;;;;;4922240;29;19918;-86
2022/01/15 12:08:10;;;;;;;26.52;14.13;;;6.30;99.90;;;;;;4941084;28;20037;-87
2022/01/15 12:10:50;;;;;;;33.33;16.65;;;5.80;99.90;;;;;;4941102;29;20068;-87
2022/01/15 12:13:23;;;;;;;32.75;17.45;;;5.00;99.90;;;;;;4980887;28;20027;-85
2022/01/15 12:16:15;;;;;;;26.73;14.23;;;4.20;99.90;;;;;;4919436;29;20032;-85
2022/01/15 12:18:49;;;;;;;30.50;16.02;;;3.60;99.90;;;;;;4931198;29;20455;-85
2022/01/15 12:21:53;;;;;;;31.55;15.43;;;3.30;99.90;;;;;;4942069;29;20130;-84
2022/01/15 12:24:40;;;;;;;30.27;14.35;;;3.00;99.90;;;;;;4931237;29;20030;-86
2022/01/15 12:27:10;;;;;;;34.22;16.67;;;2.80;99.90;;;;;;4939004;29;20567;-85
2022/01/15 12:29:37;;;;;;;38.33;18.92;;;2.60;99.90;;;;;;4939001;29;20027;-85
2022/01/15 12:32:03;;;;;;;32.15;16.38;;;2.50;99.90;;;;;;4922795;29;20122;-84
2022/01/15 12:34:29;;;;;;;26.95;15.18;;;2.40;99.90;;;;;;4938524;29;20075;-84
2022/01/15 12:36:55;;;;;;;29.05;15.23;;;2.40;99.90;;;;;;4938707;29;20032;-85
2022/01/15 12:39:32;;;;;;;30.58;15.82;;;2.20;99.90;;;;;;4939179;29;20086;-83
2022/01/15 12:41:57;;;;;;;33.38;15.55;;;2.20;99.90;;;;;;4955000;28;20126;-84
2022/01/15 12:44:24;;;;;;;31.17;15.73;;;2.10;99.90;;;;;;4943182;29;20050;-84
2022/01/15 12:46:55;;;;;;;29.95;13.63;;;2.00;99.90;;;;;;4927357;29;20036;-85
2022/01/15 12:49:20;;;;;;;32.00;15.77;;;2.00;99.90;;;;;;4927369;29;20043;-84
2022/01/15 12:51:46;;;;;;;31.55;15.00;;;1.80;99.90;;;;;;4943671;29;20035;-85
2022/01/15 12:54:12;;;;;;;30.55;14.85;;;1.80;99.90;;;;;;4942374;29;20495;-85
2022/01/15 12:56:39;;;;;;;28.77;15.02;;;1.80;99.90;;;;;;4943381;29;20027;-83
2022/01/15 12:59:04;;;;;;;27.13;13.45;;;1.70;99.90;;;;;;4942469;29;20062;-85
2022/01/15 13:01:31;;;;;;;26.15;12.70;;;1.70;99.90;;;;;;4912057;29;20051;-85
2022/01/15 13:03:57;;;;;;;26.38;13.32;;;1.60;99.90;;;;;;4960860;29;20107;-84
2022/01/15 13:06:26;;;;;;;27.63;13.77;;;1.60;99.90;;;;;;4957016;28;20027;-86
2022/01/15 13:08:55;;;;;;;28.60;14.13;;;1.60;99.90;;;;;;4947697;28;20043;-82
2022/01/15 13:11:23;;;;;;;25.92;13.60;;;1.60;99.90;;;;;;4939542;29;20389;-83
2022/01/15 13:13:54;;;;;;;29.38;13.55;;;1.60;99.90;;;;;;4923997;29;20038;-83
2022/01/15 13:16:23;;;;;;;36.38;16.55;;;1.60;99.90;;;;;;4939893;29;20035;-83